FZUS weather

Tshikaji Airport
Tshikaji, Kasai-Occidental Province, Congo (Kinshasa)

Public forecast

Using degrees Celsius for public forecast. Weather courtesy of forecast.io.

METAR (pilot weather report)

Closest report is Mbuji Mayi Airport, 69.4 nm (128.5 km) E. Retrieved 2019/02/20 11:00 UTC (32 minutes ago):

FZWA 201100Z 27004KT 9999 FEW022 BKN120 30/22 Q1012 NOSIG

TAF (pilot weather forecast)

Forecast is more than 12 hours old.

Closest forecast is Mbuji Mayi Airport, 69.4 nm (128.5 km) E. Retrieved 2016/03/19 06:00 UTC (3 years ago):

TAF FZWA 190500Z 1906/2012 09004KT CAVOK TEMPO 1912/1918 18008KT 9999 SCT027 BECMG 1919/1920 00000KT FEW030CB